Time;durP1;ratioP1;P1;durP2;ratioP2;P2;SDS_P1;SDS_P2;PMS_P1;PMS_P2;Temp;Humidity;BMP_temperature;BMP_pressure;BME280_temperature;BME280_humidity;BME280_pressure;Samples;Min_cycle;Max_cycle;Signal;HPM_P1;HPM_P2
2024/02/27 00:01:18;;;;;;;21.60;12.55;;;;;;;12.09;53.03;98821.13;4953019;29;20038;-78
2024/02/27 00:03:43;;;;;;;19.83;12.35;;;;;;;12.13;53.11;98820.75;4968124;28;20422;-77
2024/02/27 00:06:09;;;;;;;19.38;11.95;;;;;;;12.16;53.12;98826.69;4952523;28;20039;-78
2024/02/27 00:08:34;;;;;;;19.92;12.23;;;;;;;12.15;53.37;98831.09;4952486;29;20476;-77
2024/02/27 00:11:01;;;;;;;20.00;11.95;;;;;;;12.06;53.07;98813.53;4951879;29;20043;-77
2024/02/27 00:13:27;;;;;;;20.98;11.57;;;;;;;12.09;52.96;98819.31;4936329;29;20042;-76
2024/02/27 00:15:52;;;;;;;18.40;11.20;;;;;;;12.06;52.89;98824.81;4935974;29;20040;-76
2024/02/27 00:18:18;;;;;;;18.90;11.00;;;;;;;12.04;52.91;98820.66;4968804;28;20034;-76
2024/02/27 00:20:43;;;;;;;20.88;11.65;;;;;;;12.02;52.67;98817.31;4955693;29;20097;-77
2024/02/27 00:23:09;;;;;;;19.23;11.15;;;;;;;12.01;52.67;98819.13;4955740;29;20027;-76
2024/02/27 00:25:35;;;;;;;18.67;10.95;;;;;;;11.97;52.37;98812.50;4971846;28;20031;-78
2024/02/27 00:28:01;;;;;;;20.70;10.93;;;;;;;11.99;52.54;98815.81;4955617;29;20075;-76
2024/02/27 00:30:26;;;;;;;20.73;10.75;;;;;;;11.97;52.48;98820.34;4954897;29;20118;-76
2024/02/27 00:32:54;;;;;;;17.52;10.55;;;;;;;11.94;52.58;98817.97;4955969;29;20034;-77
2024/02/27 00:35:20;;;;;;;17.42;10.73;;;;;;;11.89;52.50;98813.06;4955181;29;20039;-78
2024/02/27 00:37:45;;;;;;;18.63;11.00;;;;;;;11.77;52.19;98798.38;4955776;29;20035;-77
2024/02/27 00:40:12;;;;;;;17.05;10.73;;;;;;;11.80;52.29;98813.81;4971392;28;20035;-76
2024/02/27 00:42:38;;;;;;;17.80;10.82;;;;;;;11.63;51.95;98796.84;4939245;29;20090;-76
2024/02/27 00:45:04;;;;;;;17.55;10.80;;;;;;;11.64;52.19;98806.38;4954938;29;20460;-76
2024/02/27 00:47:29;;;;;;;17.65;10.77;;;;;;;11.65;52.18;98820.25;4938568;29;20419;-76
2024/02/27 00:49:55;;;;;;;16.92;11.38;;;;;;;11.65;52.33;98830.72;4971244;28;20063;-77
2024/02/27 00:52:20;;;;;;;17.08;10.82;;;;;;;11.63;52.67;98823.00;4971646;28;20043;-77
2024/02/27 00:54:46;;;;;;;17.05;10.77;;;;;;;11.62;52.55;98825.72;4955103;29;20035;-77
2024/02/27 00:57:11;;;;;;;21.00;11.40;;;;;;;11.61;52.55;98824.91;4970283;28;20514;-76
2024/02/27 00:59:37;;;;;;;17.67;11.05;;;;;;;11.60;52.80;98828.47;4938786;29;20069;-76
2024/02/27 01:02:02;;;;;;;20.05;11.45;;;;;;;11.61;52.76;98835.38;4955327;29;20031;-77
2024/02/27 01:04:28;;;;;;;21.52;12.05;;;;;;;11.61;52.77;98830.13;4938753;29;20042;-76
2024/02/27 01:06:53;;;;;;;18.38;11.45;;;;;;;11.57;52.58;98826.09;4954737;29;20171;-75
2024/02/27 01:09:19;;;;;;;17.85;10.55;;;;;;;11.62;52.63;98837.00;4938594;29;20035;-76
2024/02/27 01:11:44;;;;;;;22.83;11.50;;;;;;;11.62;52.59;98834.38;4954735;29;20118;-77
2024/02/27 01:14:10;;;;;;;16.33;9.95;;;;;;;11.59;52.40;98835.50;4955768;28;20443;-76
2024/02/27 01:16:35;;;;;;;18.52;10.40;;;;;;;11.59;52.23;98834.63;4954487;29;20035;-76
2024/02/27 01:19:01;;;;;;;16.38;10.07;;;;;;;11.55;52.04;98828.81;4954430;29;20432;-76
2024/02/27 01:21:26;;;;;;;15.88;10.15;;;;;;;11.51;52.14;98824.81;4938562;29;20031;-76
2024/02/27 01:23:52;;;;;;;18.20;10.13;;;;;;;11.47;52.27;98819.94;4954520;29;20030;-77
2024/02/27 01:26:17;;;;;;;15.52;10.20;;;;;;;11.48;51.86;98819.81;4938581;29;20411;-77
2024/02/27 01:28:42;;;;;;;16.60;9.90;;;;;;;11.46;52.10;98818.25;4954597;29;20051;-76
2024/02/27 01:31:08;;;;;;;18.75;9.68;;;;;;;11.38;51.87;98819.69;4938833;29;20074;-78
2024/02/27 01:33:33;;;;;;;15.95;9.63;;;;;;;11.41;52.14;98831.69;4954626;28;20035;-76
2024/02/27 01:35:59;;;;;;;16.27;9.57;;;;;;;11.36;52.22;98831.22;4938540;29;20102;-76
2024/02/27 01:38:24;;;;;;;14.35;8.30;;;;;;;11.30;51.94;98831.72;4954217;29;20031;-77
2024/02/27 01:40:50;;;;;;;12.70;8.90;;;;;;;11.34;52.26;98836.56;4954370;29;20038;-76
2024/02/27 01:43:20;;;;;;;16.17;9.65;;;;;;;11.32;51.84;98833.25;4950997;29;20035;-77
2024/02/27 01:45:46;;;;;;;15.88;9.52;;;;;;;11.34;51.83;98838.38;4950493;29;20047;-77
2024/02/27 01:48:12;;;;;;;16.27;9.52;;;;;;;11.33;51.93;98837.50;4950303;29;20051;-77
2024/02/27 01:50:37;;;;;;;18.52;9.30;;;;;;;11.33;51.91;98831.47;4935183;29;20040;-77
2024/02/27 01:53:03;;;;;;;15.55;9.95;;;;;;;11.33;52.11;98829.69;4950756;29;20431;-76
2024/02/27 01:55:28;;;;;;;17.13;10.10;;;;;;;11.29;52.14;98833.50;4950812;28;20024;-77
2024/02/27 01:57:54;;;;;;;17.98;9.80;;;;;;;11.31;52.37;98833.38;4967604;28;20404;-76
2024/02/27 02:00:20;;;;;;;17.60;10.38;;;;;;;11.31;52.39;98836.00;4951215;28;20031;-77
2024/02/27 02:02:46;;;;;;;15.65;9.77;;;;;;;11.27;52.64;98826.72;4967010;28;20122;-78
2024/02/27 02:05:12;;;;;;;16.67;10.13;;;;;;;11.31;52.56;98836.81;4966618;28;20032;-77
2024/02/27 02:07:39;;;;;;;18.33;10.13;;;;;;;11.25;52.67;98828.63;4966510;28;20071;-76
2024/02/27 02:10:06;;;;;;;15.88;10.20;;;;;;;11.25;52.99;98831.25;4966158;28;20027;-75
2024/02/27 02:12:32;;;;;;;14.48;9.43;;;;;;;11.25;52.96;98828.63;4950391;28;20062;-77
2024/02/27 02:14:58;;;;;;;19.17;10.70;;;;;;;11.30;52.71;98842.16;4950526;29;20484;-77
2024/02/27 02:17:23;;;;;;;16.50;10.73;;;;;;;11.29;52.80;98838.72;4950432;28;20419;-78
2024/02/27 02:19:49;;;;;;;17.50;10.57;;;;;;;11.30;52.90;98853.44;4966875;28;20042;-78
2024/02/27 02:22:14;;;;;;;18.13;10.50;;;;;;;11.28;52.90;98846.69;4936337;29;20412;-77
2024/02/27 02:24:40;;;;;;;17.05;10.52;;;;;;;11.28;53.12;98844.88;4950652;28;20043;-78
2024/02/27 02:27:05;;;;;;;17.83;10.88;;;;;;;11.25;53.04;98842.50;4950130;29;20043;-77
2024/02/27 02:29:31;;;;;;;17.05;10.18;;;;;;;11.29;53.17;98850.94;4966728;28;20024;-78
2024/02/27 02:31:57;;;;;;;17.90;10.35;;;;;;;11.24;52.94;98838.22;4950652;28;20360;-77
2024/02/27 02:34:22;;;;;;;15.85;10.23;;;;;;;11.24;53.25;98833.00;4950857;28;20035;-78
2024/02/27 02:36:48;;;;;;;17.08;10.40;;;;;;;11.23;53.13;98844.41;4950785;29;20031;-78
2024/02/27 02:39:13;;;;;;;17.27;10.18;;;;;;;11.26;53.01;98840.72;4950477;28;20112;-77
2024/02/27 02:41:39;;;;;;;16.83;10.77;;;;;;;11.24;53.21;98846.06;4935236;29;20079;-77
2024/02/27 02:44:05;;;;;;;17.83;11.10;;;;;;;11.24;53.11;98848.69;4950259;29;20161;-77
2024/02/27 02:46:30;;;;;;;17.98;10.77;;;;;;;11.23;53.42;98847.84;4966532;28;20197;-78
2024/02/27 02:49:00;;;;;;;15.70;10.35;;;;;;;11.25;53.36;98852.97;4967163;28;20031;-78
2024/02/27 02:51:30;;;;;;;15.20;10.35;;;;;;;11.27;53.52;98845.00;4965397;28;20032;-78
2024/02/27 02:53:56;;;;;;;19.42;11.48;;;;;;;11.25;53.19;98852.16;4965964;28;20049;-78
2024/02/27 02:56:21;;;;;;;18.23;11.00;;;;;;;11.30;53.40;98848.22;4951232;29;20031;-77
2024/02/27 02:58:47;;;;;;;18.70;11.18;;;;;;;11.29;53.29;98851.78;4935334;29;20039;-77
2024/02/27 03:01:12;;;;;;;17.70;10.82;;;;;;;11.24;53.28;98838.22;4966796;28;20031;-78
2024/02/27 03:03:38;;;;;;;17.83;11.27;;;;;;;11.28;53.46;98851.91;4950460;28;20040;-77
2024/02/27 03:06:04;;;;;;;15.65;10.52;;;;;;;11.26;53.41;98856.41;4966560;28;20138;-78
2024/02/27 03:08:30;;;;;;;15.85;10.30;;;;;;;11.28;53.60;98850.13;4965900;28;20028;-78
2024/02/27 03:10:56;;;;;;;16.92;11.02;;;;;;;11.26;53.53;98857.25;4965928;28;20400;-77
2024/02/27 03:13:22;;;;;;;17.67;10.50;;;;;;;11.26;53.58;98857.25;4967141;28;20486;-78
2024/02/27 03:15:47;;;;;;;18.33;10.73;;;;;;;11.22;53.63;98854.03;4965957;28;20028;-76
2024/02/27 03:18:13;;;;;;;18.48;11.02;;;;;;;11.17;53.57;98850.13;4950298;28;20129;-79
2024/02/27 03:20:38;;;;;;;19.73;11.95;;;;;;;11.19;53.55;98856.88;4949499;28;20039;-78
2024/02/27 03:23:04;;;;;;;18.02;11.52;;;;;;;11.17;53.86;98861.38;4934123;29;20077;-78
2024/02/27 03:25:29;;;;;;;19.77;11.15;;;;;;;11.12;53.81;98860.09;4933899;29;20039;-77
2024/02/27 03:27:55;;;;;;;22.25;11.57;;;;;;;11.13;54.04;98861.75;4935586;29;20038;-78
2024/02/27 03:30:25;;;;;;;18.67;11.30;;;;;;;11.10;53.81;98862.81;4950595;28;20134;-76
2024/02/27 03:32:51;;;;;;;21.40;11.18;;;;;;;11.11;53.80;98854.03;4949140;29;20042;-77
2024/02/27 03:35:16;;;;;;;18.10;11.60;;;;;;;11.15;53.93;98868.53;4949703;28;20031;-77
2024/02/27 03:37:43;;;;;;;18.45;11.35;;;;;;;11.14;54.02;98861.63;4966429;28;20024;-77
2024/02/27 03:40:09;;;;;;;20.65;11.52;;;;;;;11.08;53.91;98862.09;4935484;29;20126;-77
2024/02/27 03:42:34;;;;;;;17.58;10.55;;;;;;;11.11;54.17;98874.09;4950031;29;20034;-78
2024/02/27 03:45:00;;;;;;;18.25;11.27;;;;;;;11.13;54.24;98874.81;4966401;28;20032;-78
2024/02/27 03:47:25;;;;;;;18.33;11.80;;;;;;;11.13;54.22;98880.03;4949770;29;20091;-78
2024/02/27 03:49:51;;;;;;;17.80;11.13;;;;;;;11.12;54.13;98878.38;4950591;28;20035;-77
2024/02/27 03:52:16;;;;;;;19.65;11.35;;;;;;;11.11;54.04;98877.53;4966118;28;20036;-77
2024/02/27 03:54:42;;;;;;;17.13;10.52;;;;;;;11.06;54.12;98871.84;4969447;28;20118;-78
2024/02/27 03:57:09;;;;;;;17.85;11.30;;;;;;;11.11;54.01;98876.72;4953890;29;20488;-78
2024/02/27 03:59:35;;;;;;;17.67;10.57;;;;;;;11.12;54.01;98881.00;4969573;28;20126;-78
2024/02/27 04:02:00;;;;;;;18.10;11.30;;;;;;;11.11;54.02;98885.38;4939119;29;20032;-79
2024/02/27 04:04:26;;;;;;;16.92;10.80;;;;;;;11.10;54.28;98882.88;4953246;29;20054;-77
2024/02/27 04:06:52;;;;;;;18.50;11.13;;;;;;;11.09;54.35;98889.06;4969477;28;20459;-77
2024/02/27 04:09:17;;;;;;;16.95;11.15;;;;;;;11.09;54.33;98891.69;4953537;29;20032;-79
2024/02/27 04:11:43;;;;;;;17.83;11.10;;;;;;;11.08;54.47;98893.44;4969111;28;20175;-79
2024/02/27 04:14:08;;;;;;;19.98;11.90;;;;;;;11.03;54.32;98885.94;4938784;29;20388;-78
2024/02/27 04:16:35;;;;;;;16.20;10.75;;;;;;;11.09;54.63;98896.91;4953412;29;20031;-79
2024/02/27 04:19:01;;;;;;;16.15;10.65;;;;;;;11.04;54.58;98889.41;4937531;29;20115;-79
2024/02/27 04:21:26;;;;;;;20.98;11.88;;;;;;;11.09;54.35;98907.34;4953819;28;20044;-78
2024/02/27 04:23:52;;;;;;;17.40;11.23;;;;;;;11.09;54.42;98900.34;4937607;29;20036;-78
2024/02/27 04:26:17;;;;;;;17.23;11.13;;;;;;;11.09;54.50;98910.78;4953973;29;20032;-78
2024/02/27 04:28:43;;;;;;;16.50;10.82;;;;;;;11.07;54.52;98907.47;4953335;28;20055;-77
2024/02/27 04:31:08;;;;;;;15.85;10.43;;;;;;;11.08;54.50;98910.91;4968608;28;20032;-79
2024/02/27 04:33:34;;;;;;;16.85;10.90;;;;;;;11.04;54.43;98905.09;4936616;29;20122;-79
2024/02/27 04:36:00;;;;;;;17.08;11.05;;;;;;;11.08;54.57;98914.34;4969169;28;20090;-80
2024/02/27 04:38:25;;;;;;;19.75;11.18;;;;;;;11.08;54.42;98914.34;4952786;29;20048;-78
2024/02/27 04:40:51;;;;;;;16.98;10.48;;;;;;;11.07;54.34;98920.53;4969099;28;20028;-78
2024/02/27 04:43:16;;;;;;;20.05;11.48;;;;;;;11.06;54.41;98915.41;4972264;28;20039;-77
2024/02/27 04:45:42;;;;;;;17.52;11.15;;;;;;;10.99;54.52;98902.81;4972253;28;20038;-78
2024/02/27 04:48:07;;;;;;;10.02;6.88;;;;;;;11.38;67.47;98920.78;4939250;29;20491;-75
2024/02/27 04:50:33;;;;;;;31.88;8.57;;;;;;;11.51;65.62;98923.28;4938950;29;20067;-75
2024/02/27 04:52:59;;;;;;;15.43;8.52;;;;;;;11.52;62.63;98923.19;4955156;29;20386;-75
2024/02/27 04:55:26;;;;;;;14.63;9.32;;;;;;;11.41;61.87;98912.72;4939274;29;20054;-74
2024/02/27 04:57:52;;;;;;;15.48;9.52;;;;;;;11.41;60.99;98925.78;4955173;29;20023;-76
2024/02/27 05:00:17;;;;;;;17.67;10.38;;;;;;;11.32;60.24;98916.03;4955216;28;20034;-74
2024/02/27 05:02:43;;;;;;;20.75;11.02;;;;;;;11.27;59.95;98920.78;4955384;29;20063;-74
2024/02/27 05:05:08;;;;;;;19.65;10.73;;;;;;;11.26;59.46;98926.94;4969995;28;20032;-77
2024/02/27 05:07:34;;;;;;;19.48;10.70;;;;;;;11.23;59.13;98928.84;4939485;29;20574;-79
2024/02/27 05:09:59;;;;;;;20.65;10.45;;;;;;;11.35;62.24;98934.09;4939080;29;20034;-77
2024/02/27 05:12:25;;;;;;;20.48;11.07;;;;;;;11.33;61.17;98934.22;4939490;28;20035;-74
2024/02/27 05:14:50;;;;;;;25.20;11.73;;;;;;;11.27;60.68;98936.47;4956371;28;20142;-82
2024/02/27 05:17:16;;;;;;;21.25;11.88;;;;;;;11.21;59.89;98927.31;4971959;28;20042;-80
2024/02/27 05:19:41;;;;;;;20.27;12.07;;;;;;;11.22;59.43;98942.03;4955029;29;20043;-81
2024/02/27 05:22:07;;;;;;;24.00;12.57;;;;;;;11.20;58.88;98938.72;4971751;28;20035;-77
2024/02/27 05:24:32;;;;;;;25.00;12.95;;;;;;;11.18;58.59;98944.06;4954517;29;20136;-76
2024/02/27 05:26:58;;;;;;;20.38;12.15;;;;;;;11.18;58.24;98948.44;4953469;29;20035;-81
2024/02/27 05:29:24;;;;;;;20.92;12.05;;;;;;;11.13;58.22;98945.34;4954731;28;20066;-79
2024/02/27 05:31:50;;;;;;;22.65;12.63;;;;;;;11.17;57.88;98949.41;4969421;28;20071;-81
2024/02/27 05:34:15;;;;;;;20.98;12.25;;;;;;;11.17;57.75;98958.06;4953481;29;20062;-79
2024/02/27 05:36:41;;;;;;;21.70;12.18;;;;;;;11.16;57.24;98953.78;4953045;29;20480;-79
2024/02/27 05:39:08;;;;;;;19.55;11.70;;;;;;;11.17;57.10;98958.06;4937180;29;20070;-78
2024/02/27 05:41:33;;;;;;;22.17;12.43;;;;;;;11.17;56.87;98963.28;4955167;29;20474;-79
2024/02/27 05:43:59;;;;;;;18.58;12.27;;;;;;;11.18;56.89;98967.56;4955293;29;20138;-78
2024/02/27 05:46:24;;;;;;;23.25;12.07;;;;;;;11.13;56.77;98961.88;4938585;29;20063;-79
2024/02/27 05:48:50;;;;;;;20.00;12.10;;;;;;;11.14;56.71;98968.75;4955000;29;20063;-81
2024/02/27 05:51:15;;;;;;;22.92;12.57;;;;;;;11.12;56.41;98975.06;4940357;29;20046;-80
2024/02/27 05:53:42;;;;;;;23.60;12.32;;;;;;;11.17;56.10;98983.38;4955916;29;20388;-79
2024/02/27 05:56:08;;;;;;;28.50;13.15;;;;;;;11.17;56.41;98991.22;4971008;28;20089;-80
2024/02/27 05:58:33;;;;;;;24.52;13.10;;;;;;;11.17;55.97;98988.59;4939814;29;20023;-80
2024/02/27 06:00:59;;;;;;;24.08;13.02;;;;;;;11.12;56.07;98988.94;4938982;29;20031;-79
2024/02/27 06:03:25;;;;;;;23.67;12.90;;;;;;;11.12;56.09;98981.09;4970908;28;20031;-79
2024/02/27 06:05:50;;;;;;;25.77;13.27;;;;;;;11.19;55.76;99000.59;4938715;29;20032;-80
2024/02/27 06:08:17;;;;;;;26.42;13.40;;;;;;;11.22;55.72;99008.19;4954730;29;20023;-80
2024/02/27 06:10:42;;;;;;;23.88;13.18;;;;;;;11.24;55.66;99015.91;4955109;29;20065;-80
2024/02/27 06:13:08;;;;;;;26.52;13.77;;;;;;;11.19;55.70;99005.81;4971109;28;20434;-81
2024/02/27 06:15:34;;;;;;;28.67;14.35;;;;;;;11.21;55.66;99011.78;4954044;28;20058;-81
2024/02/27 06:17:59;;;;;;;27.45;14.10;;;;;;;11.26;55.25;99015.81;4938177;29;20403;-80
2024/02/27 06:23:17;;;;;;;26.90;14.45;;;;;;;11.31;55.16;99024.97;4954137;29;20043;-80
2024/02/27 06:25:42;;;;;;;29.35;14.20;;;;;;;11.31;55.38;99024.97;4970520;28;20043;-79
2024/02/27 06:28:08;;;;;;;30.95;15.50;;;;;;;11.32;54.89;99031.03;4955743;28;20023;-80
2024/02/27 06:30:34;;;;;;;29.77;14.45;;;;;;;11.28;55.11;99022.59;4954661;29;20043;-80
2024/02/27 06:32:59;;;;;;;33.65;14.88;;;;;;;11.34;54.93;99039.63;4937638;29;20039;-79
2024/02/27 06:35:26;;;;;;;34.58;16.42;;;;;;;11.35;54.94;99041.25;4938534;29;20098;-80
2024/02/27 06:37:51;;;;;;;31.33;15.75;;;;;;;11.32;54.92;99044.94;4954309;29;20373;-80
2024/02/27 06:40:17;;;;;;;32.05;15.93;;;;;;;11.32;54.82;99044.94;4954197;29;20093;-83
2024/02/27 06:42:43;;;;;;;35.60;17.38;;;;;;;11.34;54.90;99047.44;4938168;29;20035;-81
2024/02/27 06:45:09;;;;;;;33.08;16.40;;;;;;;11.40;54.87;99054.81;4953849;29;20122;-80
2024/02/27 06:47:38;;;;;;;31.33;16.40;;;;;;;11.39;54.67;99053.16;4937728;29;20054;-81
2024/02/27 06:50:04;;;;;;;38.03;16.73;;;;;;;11.45;54.52;99062.31;4937766;29;20046;-80
2024/02/27 06:52:30;;;;;;;37.17;17.42;;;;;;;11.49;54.73;99066.38;4937595;29;20047;-80
2024/02/27 06:54:55;;;;;;;34.72;17.20;;;;;;;11.49;54.67;99068.97;4937712;29;20035;-80
2024/02/27 06:57:21;;;;;;;33.80;16.70;;;;;;;11.49;54.45;99063.75;4953927;29;20506;-80
2024/02/27 06:59:46;;;;;;;39.00;18.20;;;;;;;11.50;54.55;99066.25;4937938;29;20059;-81
2024/02/27 07:02:12;;;;;;;41.00;18.85;;;;;;;11.54;54.33;99069.47;4937823;29;20062;-81
2024/02/27 07:04:37;;;;;;;37.20;17.00;;;;;;;11.58;54.30;99076.97;4953709;29;20035;-82
2024/02/27 07:07:03;;;;;;;38.78;18.48;;;;;;;11.57;54.21;99074.47;4953731;29;20031;-82
2024/02/27 07:09:30;;;;;;;41.42;19.02;;;;;;;11.58;54.38;99074.34;4952825;29;20027;-81
2024/02/27 07:11:56;;;;;;;37.42;18.58;;;;;;;11.65;54.02;99089.59;4937853;29;20046;-81
2024/02/27 07:14:21;;;;;;;40.42;18.17;;;;;;;11.67;54.08;99093.75;4953470;29;20023;-81
2024/02/27 07:16:47;;;;;;;41.25;20.00;;;;;;;11.67;54.50;99095.53;4937663;29;20475;-81
2024/02/27 07:19:12;;;;;;;40.90;18.35;;;;;;;11.69;54.31;99104.94;4937635;29;20035;-80
2024/02/27 07:21:38;;;;;;;45.38;20.52;;;;;;;11.65;54.30;99098.25;4953149;28;20038;-81
2024/02/27 07:24:05;;;;;;;39.67;19.85;;;;;;;11.70;54.16;99111.84;4937012;29;20135;-80
2024/02/27 07:26:30;;;;;;;42.25;20.17;;;;;;;11.70;54.12;99106.59;4937127;29;20031;-80
2024/02/27 07:28:56;;;;;;;42.70;19.80;;;;;;;11.71;54.27;99110.03;4937221;29;20054;-81
2024/02/27 07:31:22;;;;;;;46.13;21.25;;;;;;;11.76;54.10;99111.38;4937196;29;20599;-80
2024/02/27 07:33:47;;;;;;;43.92;21.23;;;;;;;11.82;53.82;99111.88;4936986;29;20133;-81
2024/02/27 07:36:13;;;;;;;43.17;20.95;;;;;;;11.80;54.05;99105.88;4952962;29;20476;-81
2024/02/27 07:38:39;;;;;;;41.58;20.83;;;;;;;11.83;53.98;99111.75;4953309;29;20043;-80
2024/02/27 07:41:04;;;;;;;45.17;20.80;;;;;;;11.86;53.84;99108.03;4953213;29;20035;-79
2024/02/27 07:43:30;;;;;;;43.63;20.63;;;;;;;11.91;53.63;99112.00;4937000;29;20065;-80
2024/02/27 07:45:55;;;;;;;45.55;21.60;;;;;;;11.90;53.85;99106.88;4937498;29;20536;-81
2024/02/27 07:48:21;;;;;;;48.10;22.20;;;;;;;11.98;53.68;99111.56;4936861;29;20051;-80
2024/02/27 07:50:47;;;;;;;45.92;22.50;;;;;;;11.95;53.78;99112.63;4953053;29;20423;-78
2024/02/27 07:53:12;;;;;;;51.22;22.85;;;;;;;11.98;53.71;99117.63;4937586;29;20046;-80
2024/02/27 07:55:39;;;;;;;47.08;21.42;;;;;;;12.02;53.71;99110.34;4937612;29;20118;-80
2024/02/27 07:58:04;;;;;;;52.28;22.90;;;;;;;12.03;53.72;99101.56;4936963;29;20031;-80
2024/02/27 08:00:30;;;;;;;48.47;21.92;;;;;;;12.10;53.45;99106.22;4937178;29;20051;-79
2024/02/27 08:02:55;;;;;;;53.10;22.75;;;;;;;12.09;53.37;99101.94;4952739;29;20074;-80
2024/02/27 08:05:22;;;;;;;51.22;22.92;;;;;;;12.10;53.42;99092.31;4938004;29;20031;-80
2024/02/27 08:07:47;;;;;;;50.67;22.88;;;;;;;12.14;53.41;99104.19;4953320;29;20490;-80
2024/02/27 08:10:13;;;;;;;49.72;22.13;;;;;;;12.13;53.27;99102.53;4937040;29;20046;-78
2024/02/27 08:12:38;;;;;;;45.88;22.42;;;;;;;12.21;53.17;99112.44;4937150;29;20039;-81
2024/02/27 08:15:04;;;;;;;49.45;22.15;;;;;;;12.22;53.16;99112.28;4954220;29;20035;-82
2024/02/27 08:17:30;;;;;;;55.28;23.30;;;;;;;12.25;52.98;99111.22;4937116;29;20491;-81
2024/02/27 08:19:56;;;;;;;49.50;23.17;;;;;;;12.30;52.92;99119.53;4952975;29;20105;-81
2024/02/27 08:22:22;;;;;;;47.50;22.83;;;;;;;12.35;53.03;99121.81;4953663;29;20037;-80
2024/02/27 08:24:47;;;;;;;47.13;22.95;;;;;;;12.40;52.81;99117.91;4952823;29;20047;-79
2024/02/27 08:27:13;;;;;;;47.05;23.15;;;;;;;12.45;52.58;99113.13;4968644;28;20058;-80
2024/02/27 08:29:38;;;;;;;47.22;22.17;;;;;;;12.55;52.42;99113.22;4952595;29;20149;-80
2024/02/27 08:32:04;;;;;;;48.95;22.92;;;;;;;12.51;52.50;99095.25;4952499;28;20050;-79
2024/02/27 08:34:29;;;;;;;49.08;23.00;;;;;;;12.69;52.25;99104.28;4953255;28;20046;-80
2024/02/27 08:36:56;;;;;;;47.15;22.58;;;;;;;12.83;51.79;99114.50;4953284;29;20086;-79
2024/02/27 08:39:21;;;;;;;49.13;23.27;;;;;;;12.94;51.85;99113.66;4969761;28;20066;-80
2024/02/27 08:41:47;;;;;;;48.13;23.60;;;;;;;13.07;51.88;99113.50;4956509;28;20491;-85
2024/02/27 08:44:12;;;;;;;43.80;22.50;;;;;;;13.20;51.71;99118.56;4940897;29;20035;-81
2024/02/27 08:46:39;;;;;;;46.88;23.25;;;;;;;13.32;50.99;99116.75;4955962;29;20514;-81
2024/02/27 08:49:05;;;;;;;48.95;22.50;;;;;;;13.45;50.96;99117.44;4956258;29;20027;-79
2024/02/27 08:51:33;;;;;;;48.38;22.23;;;;;;;13.54;50.94;99119.31;4956133;29;20490;-79
2024/02/27 08:53:59;;;;;;;43.22;22.67;;;;;;;13.64;50.72;99118.56;4940613;29;20033;-80
2024/02/27 08:56:24;;;;;;;46.92;23.55;;;;;;;13.70;50.63;99110.16;4956202;29;20035;-80
2024/02/27 08:58:50;;;;;;;43.95;23.30;;;;;;;13.77;50.24;99108.69;4938989;29;20043;-81
2024/02/27 09:01:15;;;;;;;45.67;23.58;;;;;;;13.87;50.25;99106.97;4940180;29;20061;-81
2024/02/27 09:03:41;;;;;;;46.90;23.42;;;;;;;14.00;49.86;99098.06;4971969;28;20047;-80
2024/02/27 09:06:09;;;;;;;42.83;22.23;;;;;;;14.15;49.35;99109.88;4955887;29;20495;-83
2024/02/27 09:08:35;;;;;;;46.27;22.17;;;;;;;14.28;49.32;99115.75;4939901;29;20066;-81
2024/02/27 09:11:00;;;;;;;44.08;21.88;;;;;;;14.37;48.93;99111.47;4955178;29;20046;-82
2024/02/27 09:13:26;;;;;;;44.83;23.25;;;;;;;14.49;49.18;99120.13;4956331;28;20043;-79
2024/02/27 09:15:51;;;;;;;44.40;21.48;;;;;;;14.67;48.57;99119.50;4939918;29;20043;-81
2024/02/27 09:18:17;;;;;;;41.25;21.17;;;;;;;14.77;48.24;99129.09;4955414;28;20042;-80
2024/02/27 09:20:43;;;;;;;46.50;22.92;;;;;;;14.97;47.59;99129.13;4939222;29;20467;-83
2024/02/27 09:23:09;;;;;;;39.13;22.25;;;;;;;15.17;46.96;99122.94;4955114;29;20035;-82
2024/02/27 09:25:35;;;;;;;36.90;21.73;;;;;;;15.46;46.28;99129.16;4939122;29;20047;-81
2024/02/27 09:28:00;;;;;;;40.97;21.52;;;;;;;15.81;45.54;99125.16;4939017;29;20086;-83
2024/02/27 09:30:26;;;;;;;40.47;22.25;;;;;;;15.90;45.46;99122.50;4954852;29;20039;-81
2024/02/27 09:32:53;;;;;;;41.30;23.95;;;;;;;16.08;45.28;99124.38;4939678;29;20146;-81
2024/02/27 09:35:19;;;;;;;41.72;23.52;;;;;;;16.46;44.48;99126.09;4939221;29;20023;-81
2024/02/27 09:37:45;;;;;;;42.08;24.60;;;;;;;16.76;44.22;99118.88;4939109;29;20039;-85
2024/02/27 09:40:11;;;;;;;40.97;23.25;;;;;;;17.21;43.29;99121.66;4954778;29;20407;-80
2024/02/27 09:42:38;;;;;;;43.17;23.90;;;;;;;17.72;42.48;99106.91;4939018;29;20093;-81
2024/02/27 09:45:05;;;;;;;38.58;22.98;;;;;;;18.17;41.57;99113.00;4954767;29;20031;-82
2024/02/27 09:47:31;;;;;;;44.17;23.02;;;;;;;18.78;40.53;99119.06;4954845;29;20200;-80
2024/02/27 09:49:56;;;;;;;33.60;21.25;;;;;;;19.39;39.54;99116.22;4938427;28;20039;-80
2024/02/27 09:52:22;;;;;;;30.73;20.48;;;;;;;20.23;37.91;99114.19;4953452;29;20039;-79
2024/02/27 09:54:47;;;;;;;30.13;19.55;;;;;;;20.80;36.74;99104.38;4955032;29;20035;-79
2024/02/27 09:57:13;;;;;;;29.98;18.77;;;;;;;21.34;35.75;99093.72;4938851;29;20118;-80
2024/02/27 09:59:40;;;;;;;26.02;18.02;;;;;;;21.76;34.96;99094.22;4970770;28;20039;-83
2024/02/27 10:02:08;;;;;;;28.10;19.67;;;;;;;22.16;34.27;99098.31;4954985;29;20166;-80
2024/02/27 10:04:35;;;;;;;29.00;19.52;;;;;;;22.53;33.50;99090.44;4970638;28;20038;-80
2024/02/27 10:07:05;;;;;;;31.15;20.55;;;;;;;22.84;33.01;99092.03;4938617;29;20542;-83
2024/02/27 10:09:35;;;;;;;28.80;20.50;;;;;;;23.09;32.44;99092.53;4954519;29;20043;-79
2024/02/27 10:12:02;;;;;;;27.05;19.80;;;;;;;23.26;32.13;99087.75;4954866;29;20035;-79
2024/02/27 10:14:37;;;;;;;27.02;17.88;;;;;;;23.39;31.66;99090.56;4954487;29;20031;-81
2024/02/27 10:17:04;;;;;;;23.33;16.42;;;;;;;23.51;31.46;99085.53;4954537;29;20046;-79
2024/02/27 10:19:30;;;;;;;22.05;15.40;;;;;;;23.69;31.17;99078.91;4970822;28;20031;-80
2024/02/27 10:21:55;;;;;;;21.70;15.00;;;;;;;23.76;31.06;99074.44;4954430;29;20462;-80
2024/02/27 10:24:21;;;;;;;30.33;13.57;;;;;;;23.92;30.79;99076.84;4955441;29;20027;-81
2024/02/27 10:26:53;;;;;;;18.92;13.40;;;;;;;24.02;30.98;99079.16;4954689;28;20482;-79
2024/02/27 10:29:23;;;;;;;18.83;12.90;;;;;;;24.02;30.61;99065.81;4954129;29;20407;-80
2024/02/27 10:31:52;;;;;;;17.02;12.35;;;;;;;24.03;30.28;99075.47;4938256;29;20031;-78
2024/02/27 10:34:21;;;;;;;17.02;12.18;;;;;;;24.05;30.52;99070.75;4938144;29;20039;-80
2024/02/27 10:37:04;;;;;;;16.30;11.65;;;;;;;24.10;30.44;99075.50;4939246;28;20085;-81
2024/02/27 10:39:33;;;;;;;17.77;10.70;;;;;;;24.08;30.09;99065.03;4970699;28;20035;-81
2024/02/27 10:41:59;;;;;;;16.88;10.52;;;;;;;23.97;30.24;99060.25;4954164;29;20031;-82
2024/02/27 10:44:28;;;;;;;14.95;10.45;;;;;;;23.96;30.21;99048.78;4954027;28;20039;-81
2024/02/27 10:46:58;;;;;;;17.83;9.68;;;;;;;23.86;29.88;99058.13;4937365;29;20085;-80
2024/02/27 10:49:23;;;;;;;13.65;9.55;;;;;;;23.81;30.08;99054.16;4953898;29;20177;-79
2024/02/27 10:51:49;;;;;;;14.27;8.50;;;;;;;23.77;29.84;99057.44;4938169;29;20031;-78
2024/02/27 10:54:18;;;;;;;12.73;8.75;;;;;;;23.71;30.45;99055.56;4938187;29;20067;-78
2024/02/27 10:56:44;;;;;;;12.35;8.25;;;;;;;23.64;30.20;99055.50;4969725;28;20031;-77
2024/02/27 10:59:10;;;;;;;13.38;8.38;;;;;;;23.51;30.38;99052.75;4953593;29;20027;-79
2024/02/27 11:01:36;;;;;;;12.57;8.52;;;;;;;23.46;30.56;99053.31;4937169;28;20043;-80
2024/02/27 11:04:04;;;;;;;12.20;7.72;;;;;;;23.42;30.67;99060.88;4937622;29;20101;-81
2024/02/27 11:06:30;;;;;;;;;;;;;;;23.27;30.81;99057.47;4938059;29;20035;-82
2024/02/27 11:09:07;;;;;;;15.68;8.38;;;;;;;23.21;31.00;99053.72;4953526;29;20397;-82
2024/02/27 11:11:33;;;;;;;12.77;7.97;;;;;;;23.10;30.88;99055.06;4955141;29;20093;-79
2024/02/27 11:14:03;;;;;;;11.55;7.95;;;;;;;23.03;31.17;99050.66;4953882;29;20094;-82
2024/02/27 11:16:28;;;;;;;12.18;7.75;;;;;;;22.85;31.37;99043.09;4969398;28;20035;-81